createdAt,value
2022-08-20T00:00:24.717Z,21.13
2022-08-20T00:01:44.047Z,21.18
2022-08-20T00:02:56.006Z,21.50
2022-08-20T00:04:04.153Z,21.53
2022-08-20T00:05:15.682Z,21.50
2022-08-20T00:06:24.654Z,21.50
2022-08-20T00:07:32.656Z,21.58
2022-08-20T00:08:40.321Z,21.66
2022-08-20T00:09:48.755Z,21.68
2022-08-20T00:10:56.972Z,21.55
2022-08-20T00:12:05.103Z,21.17
2022-08-20T00:13:15.157Z,21.37
2022-08-20T00:14:26.895Z,21.20
2022-08-20T00:15:36.988Z,21.26
2022-08-20T00:16:44.808Z,21.36
2022-08-20T00:17:52.989Z,21.37
2022-08-20T00:19:04.068Z,21.45
2022-08-20T00:20:15.609Z,21.47
2022-08-20T00:21:23.407Z,21.44
2022-08-20T00:22:33.854Z,21.45
2022-08-20T00:23:43.653Z,21.42
2022-08-20T00:24:52.480Z,21.45
2022-08-20T00:26:00.976Z,21.54
2022-08-20T00:27:08.692Z,21.25
2022-08-20T00:28:16.639Z,21.19
2022-08-20T00:29:24.606Z,21.22
2022-08-20T00:30:33.738Z,21.36
2022-08-20T00:31:42.047Z,21.30
2022-08-20T00:32:53.796Z,21.39
2022-08-20T00:34:02.885Z,21.38
2022-08-20T00:35:12.980Z,21.61
2022-08-20T00:36:21.202Z,22.08
2022-08-20T00:37:28.103Z,22.46
2022-08-20T00:38:36.113Z,22.47
2022-08-20T00:39:43.357Z,22.68
2022-08-20T00:41:02.374Z,22.85
2022-08-20T00:42:09.726Z,22.93
2022-08-20T00:43:40.143Z,22.86
2022-08-20T00:44:48.625Z,22.90
2022-08-20T00:45:58.489Z,23.15
2022-08-20T00:47:06.349Z,23.57
2022-08-20T00:48:13.524Z,23.54
2022-08-20T00:49:26.658Z,23.47
2022-08-20T00:50:38.479Z,23.76
2022-08-20T00:52:13.960Z,24.26
2022-08-20T00:53:21.097Z,24.37
2022-08-20T00:54:35.754Z,24.74
2022-08-20T00:55:42.774Z,25.01
2022-08-20T00:56:52.573Z,25.34
2022-08-20T00:58:01.963Z,25.42
2022-08-20T00:59:12.453Z,25.47
2022-08-20T01:00:22.533Z,25.46
2022-08-20T01:01:29.964Z,25.34
2022-08-20T01:02:36.934Z,25.56
2022-08-20T01:03:44.093Z,25.95
2022-08-20T01:04:55.924Z,25.88
2022-08-20T01:06:03.123Z,25.78
2022-08-20T01:07:10.117Z,25.72
2022-08-20T01:08:18.495Z,25.99
2022-08-20T01:09:33.536Z,25.78
2022-08-20T01:10:55.154Z,26.06
2022-08-20T01:12:02.712Z,26.10
2022-08-20T01:13:12.140Z,26.15
2022-08-20T01:14:32.383Z,26.16
2022-08-20T01:15:45.892Z,26.30
2022-08-20T01:16:57.023Z,26.44
2022-08-20T01:18:05.415Z,26.47
2022-08-20T01:19:29.703Z,26.50
2022-08-20T01:20:42.598Z,26.88
2022-08-20T01:21:51.918Z,27.19
2022-08-20T01:23:29.594Z,27.01
2022-08-20T01:24:41.281Z,27.22
2022-08-20T01:25:52.257Z,26.96
2022-08-20T01:26:59.844Z,26.98
2022-08-20T01:28:08.057Z,26.88
2022-08-20T01:29:21.906Z,27.14
2022-08-20T01:30:29.857Z,27.11
2022-08-20T01:31:38.557Z,27.32
2022-08-20T01:32:47.145Z,27.37
2022-08-20T01:33:55.781Z,27.45
2022-08-20T01:35:03.254Z,27.66
2022-08-20T01:36:12.820Z,27.63
2022-08-20T01:37:20.940Z,27.94
2022-08-20T01:38:29.455Z,28.14
2022-08-20T01:39:38.215Z,28.33
2022-08-20T01:41:01.055Z,28.50
2022-08-20T01:42:29.759Z,28.55
2022-08-20T01:43:37.888Z,29.00
2022-08-20T01:44:46.966Z,28.89
2022-08-20T01:45:55.282Z,28.63
2022-08-20T01:47:24.972Z,28.61
2022-08-20T01:48:33.082Z,29.08
2022-08-20T01:49:45.621Z,29.05
2022-08-20T01:51:17.988Z,29.30
2022-08-20T01:52:33.670Z,29.60
2022-08-20T01:53:45.014Z,29.76
2022-08-20T01:54:54.720Z,29.78
2022-08-20T01:56:04.620Z,29.97
2022-08-20T01:57:17.552Z,30.26
2022-08-20T01:58:25.669Z,30.46
2022-08-20T01:59:33.750Z,30.62
2022-08-20T02:00:41.291Z,30.99
2022-08-20T02:01:50.475Z,31.03
2022-08-20T02:02:58.944Z,31.24
2022-08-20T02:04:08.419Z,31.50
2022-08-20T02:05:23.489Z,31.57
2022-08-20T02:06:32.716Z,31.91
2022-08-20T02:07:40.682Z,32.22
2022-08-20T02:08:48.710Z,32.27
2022-08-20T02:09:56.659Z,32.20
2022-08-20T02:11:03.878Z,32.33
2022-08-20T02:12:12.228Z,32.69
2022-08-20T02:13:20.520Z,32.89
2022-08-20T02:14:28.817Z,32.92
2022-08-20T02:15:39.791Z,33.53
2022-08-20T02:16:55.308Z,33.56
2022-08-20T02:18:08.143Z,33.69
2022-08-20T02:19:27.110Z,33.86
2022-08-20T02:20:34.365Z,34.35
2022-08-20T02:21:47.839Z,34.86
2022-08-20T02:23:00.039Z,34.90
2022-08-20T02:24:07.429Z,35.28
2022-08-20T02:25:16.908Z,35.46
2022-08-20T02:26:24.020Z,35.99
2022-08-20T02:27:32.347Z,36.13
2022-08-20T02:28:42.740Z,36.19
2022-08-20T02:29:53.563Z,36.79
2022-08-20T02:31:03.095Z,36.94
2022-08-20T02:32:32.803Z,36.90
2022-08-20T02:33:39.138Z,37.03
2022-08-20T02:34:47.490Z,37.04
2022-08-20T02:35:57.673Z,37.24
2022-08-20T02:37:05.624Z,37.33
2022-08-20T02:38:14.195Z,37.85
2022-08-20T02:39:22.375Z,37.98
2022-08-20T02:40:30.472Z,38.10
2022-08-20T02:41:39.686Z,38.29
2022-08-20T02:42:50.040Z,38.51
2022-08-20T02:43:59.020Z,38.82
2022-08-20T02:45:07.695Z,38.85
2022-08-20T02:46:17.363Z,38.92
2022-08-20T02:47:25.183Z,39.13
2022-08-20T02:48:33.072Z,39.18
2022-08-20T02:49:42.042Z,39.32
2022-08-20T02:51:09.734Z,39.31
2022-08-20T02:52:17.724Z,39.55
2022-08-20T02:53:26.433Z,39.69
2022-08-20T02:54:34.077Z,39.70
2022-08-20T02:55:41.670Z,39.75
2022-08-20T02:56:49.010Z,39.93
2022-08-20T02:57:59.053Z,40.06
2022-08-20T02:59:06.584Z,40.40
2022-08-20T03:00:18.208Z,40.79
2022-08-20T03:01:26.434Z,41.04
2022-08-20T03:02:34.279Z,41.14
2022-08-20T03:03:43.078Z,41.07
2022-08-20T03:04:51.874Z,41.33
2022-08-20T03:06:00.162Z,41.48
2022-08-20T03:07:07.985Z,41.49
2022-08-20T03:08:16.520Z,41.83
2022-08-20T03:09:24.290Z,41.71
2022-08-20T03:10:35.480Z,41.93
2022-08-20T03:11:44.302Z,42.14
2022-08-20T03:12:52.712Z,42.27
2022-08-20T03:13:59.918Z,42.51
2022-08-20T03:15:08.379Z,42.25
2022-08-20T03:16:25.887Z,42.29
2022-08-20T03:17:33.390Z,42.32
2022-08-20T03:18:45.391Z,42.68
2022-08-20T03:19:53.549Z,42.74
2022-08-20T03:21:01.426Z,42.66
2022-08-20T03:22:09.662Z,42.59
2022-08-20T03:23:17.121Z,42.79
2022-08-20T03:24:25.360Z,42.84
2022-08-20T03:25:33.310Z,42.64
2022-08-20T03:26:41.703Z,42.82
2022-08-20T03:27:54.178Z,42.88
2022-08-20T03:29:02.594Z,43.09
2022-08-20T03:30:12.515Z,42.89
2022-08-20T03:31:20.913Z,42.93
2022-08-20T03:32:29.222Z,42.97
2022-08-20T03:33:37.159Z,42.98
2022-08-20T03:34:57.981Z,42.81
2022-08-20T03:36:07.463Z,43.18
2022-08-20T03:37:15.545Z,42.83
2022-08-20T03:38:33.212Z,43.01
2022-08-20T03:39:41.958Z,42.82
2022-08-20T03:40:49.586Z,43.01
2022-08-20T03:41:57.368Z,43.35
2022-08-20T03:43:04.666Z,43.34
2022-08-20T03:44:11.627Z,43.51
2022-08-20T03:45:20.566Z,43.38
2022-08-20T03:46:27.897Z,43.63
2022-08-20T03:47:35.279Z,43.70
2022-08-20T03:48:43.096Z,43.92
2022-08-20T03:49:50.088Z,43.79
2022-08-20T03:50:59.900Z,43.72
2022-08-20T03:52:08.505Z,43.81
2022-08-20T03:53:16.747Z,43.93
2022-08-20T03:54:25.164Z,44.05
2022-08-20T03:55:40.526Z,44.05
2022-08-20T03:56:49.477Z,44.15
2022-08-20T03:58:00.225Z,45.88
2022-08-20T03:59:07.837Z,47.44
2022-08-20T04:00:16.845Z,48.01
2022-08-20T04:01:44.376Z,48.83
2022-08-20T04:02:53.593Z,49.44
2022-08-20T04:04:01.352Z,49.88
2022-08-20T04:05:09.387Z,50.54
2022-08-20T04:06:17.468Z,51.02
2022-08-20T04:07:28.747Z,51.55
2022-08-20T04:08:37.632Z,51.71
2022-08-20T04:09:46.358Z,52.19
2022-08-20T04:10:55.144Z,52.60
2022-08-20T04:12:03.744Z,52.86
2022-08-20T04:13:11.729Z,52.92
2022-08-20T04:14:20.543Z,52.71
2022-08-20T04:15:28.524Z,52.77
2022-08-20T04:16:36.367Z,53.04
2022-08-20T04:17:48.043Z,53.97
2022-08-20T04:19:02.529Z,54.18
2022-08-20T04:20:12.482Z,54.62
2022-08-20T04:21:21.173Z,54.74
2022-08-20T04:22:29.305Z,54.60
2022-08-20T04:23:37.596Z,54.63
2022-08-20T04:24:45.124Z,54.87
2022-08-20T04:25:53.155Z,55.00
2022-08-20T04:27:06.670Z,55.34
2022-08-20T04:28:26.755Z,55.27
2022-08-20T04:29:35.622Z,55.56
2022-08-20T04:30:47.537Z,55.64
2022-08-20T04:32:00.298Z,55.48
2022-08-20T04:33:08.044Z,55.60
2022-08-20T04:34:16.187Z,55.62
2022-08-20T04:35:25.703Z,55.63
2022-08-20T04:36:33.824Z,55.54
2022-08-20T04:37:41.948Z,55.50
2022-08-20T04:38:51.134Z,55.54
2022-08-20T04:40:18.108Z,55.49
2022-08-20T04:41:26.203Z,55.47
2022-08-20T04:42:33.795Z,55.31
2022-08-20T04:43:42.908Z,55.38
2022-08-20T04:44:52.604Z,55.42
2022-08-20T04:46:12.066Z,55.26
2022-08-20T04:47:25.364Z,55.46
2022-08-20T04:48:48.972Z,55.64
2022-08-20T04:50:02.128Z,56.00
2022-08-20T04:51:11.946Z,56.18
2022-08-20T04:52:20.038Z,56.48
2022-08-20T04:53:29.322Z,56.75
2022-08-20T04:54:37.645Z,56.64
2022-08-20T04:55:46.523Z,56.59
2022-08-20T04:56:55.249Z,56.95
2022-08-20T04:58:14.864Z,57.21
2022-08-20T04:59:22.376Z,57.00
2022-08-20T05:00:29.973Z,56.95
2022-08-20T05:01:37.669Z,57.38
2022-08-20T05:02:45.626Z,57.84
2022-08-20T05:03:56.372Z,57.62
2022-08-20T05:05:04.976Z,57.67
2022-08-20T05:06:14.265Z,57.94
2022-08-20T05:07:22.639Z,58.61
2022-08-20T05:08:31.227Z,58.80
2022-08-20T05:09:43.828Z,58.92
2022-08-20T05:10:56.103Z,59.29
2022-08-20T05:12:17.065Z,59.41
2022-08-20T05:13:27.362Z,59.26
2022-08-20T05:14:36.380Z,59.76
2022-08-20T05:15:47.077Z,59.53
2022-08-20T05:16:59.361Z,59.52
2022-08-20T05:18:09.803Z,59.73
2022-08-20T05:19:18.946Z,59.83
2022-08-20T05:20:29.006Z,60.08
2022-08-20T05:21:37.455Z,60.47
2022-08-20T05:22:45.337Z,60.37
2022-08-20T05:23:53.738Z,60.22
2022-08-20T05:25:03.374Z,60.70
2022-08-20T05:26:11.989Z,60.85
2022-08-20T05:27:25.048Z,61.09
2022-08-20T05:28:36.866Z,61.30
2022-08-20T05:30:10.201Z,61.41
2022-08-20T05:31:22.308Z,61.29
2022-08-20T05:32:39.563Z,61.50
2022-08-20T05:33:54.102Z,61.71
2022-08-20T05:35:02.924Z,61.66
2022-08-20T05:36:11.545Z,62.03
2022-08-20T05:37:24.112Z,62.41
2022-08-20T05:38:34.108Z,62.43
2022-08-20T05:39:42.092Z,62.44
2022-08-20T05:40:51.076Z,62.33
2022-08-20T05:41:59.495Z,62.51
2022-08-20T05:43:10.695Z,62.50
2022-08-20T05:44:18.796Z,62.72
2022-08-20T05:45:26.304Z,62.77
2022-08-20T05:46:33.956Z,63.12
2022-08-20T05:47:53.401Z,63.38
2022-08-20T05:49:05.316Z,63.77
2022-08-20T05:50:20.660Z,63.75
2022-08-20T05:51:31.649Z,63.78
2022-08-20T05:52:39.874Z,63.48
2022-08-20T05:53:48.357Z,63.56
2022-08-20T05:54:57.387Z,63.98
2022-08-20T05:56:06.235Z,64.00
2022-08-20T05:57:15.327Z,63.84
2022-08-20T05:58:25.456Z,64.56
2022-08-20T05:59:35.704Z,64.60
2022-08-20T06:00:43.627Z,64.59
2022-08-20T06:01:53.102Z,64.66
2022-08-20T06:03:18.936Z,64.72
2022-08-20T06:04:28.693Z,65.24
2022-08-20T06:05:36.619Z,65.08
2022-08-20T06:06:46.861Z,65.48
2022-08-20T06:08:07.062Z,65.84
2022-08-20T06:09:30.952Z,66.20
2022-08-20T06:10:42.614Z,66.34
2022-08-20T06:11:52.515Z,66.33
2022-08-20T06:13:00.677Z,66.26
2022-08-20T06:14:08.826Z,66.28
2022-08-20T06:15:17.026Z,66.31
2022-08-20T06:16:29.054Z,66.47
2022-08-20T06:17:39.620Z,66.25
2022-08-20T06:18:48.766Z,67.04
2022-08-20T06:19:57.804Z,67.34
2022-08-20T06:21:05.677Z,67.20
2022-08-20T06:22:21.152Z,67.12
2022-08-20T06:23:43.664Z,67.04
2022-08-20T06:25:03.964Z,67.12
2022-08-20T06:26:12.996Z,67.13
2022-08-20T06:27:21.107Z,67.10
2022-08-20T06:28:29.905Z,66.82
2022-08-20T06:29:37.945Z,67.15
2022-08-20T06:30:45.949Z,66.91
2022-08-20T06:31:54.435Z,67.13
2022-08-20T06:33:02.741Z,67.38
2022-08-20T06:34:11.067Z,67.62
2022-08-20T06:35:20.106Z,67.78
2022-08-20T06:36:28.931Z,67.94
2022-08-20T06:37:40.898Z,68.11
2022-08-20T06:38:48.843Z,68.09
2022-08-20T06:39:58.023Z,68.27
2022-08-20T06:41:05.756Z,68.36
2022-08-20T06:42:13.940Z,68.51
2022-08-20T06:43:29.124Z,68.17
2022-08-20T06:44:37.505Z,68.64
2022-08-20T06:45:46.105Z,68.86
2022-08-20T06:46:54.600Z,69.10
2022-08-20T06:48:04.768Z,69.25
2022-08-20T06:49:12.462Z,69.24
2022-08-20T06:50:26.905Z,69.37
2022-08-20T06:51:35.497Z,69.41
2022-08-20T06:52:52.730Z,69.94
2022-08-20T06:54:01.754Z,70.11
2022-08-20T06:55:10.314Z,69.69
2022-08-20T06:56:18.123Z,69.50
2022-08-20T06:57:26.210Z,70.09
2022-08-20T06:58:37.942Z,70.28
2022-08-20T06:59:54.008Z,70.47
2022-08-20T07:01:09.045Z,70.46
2022-08-20T07:02:18.380Z,70.52
2022-08-20T07:03:25.958Z,70.43
2022-08-20T07:04:34.220Z,70.79
2022-08-20T07:05:46.601Z,70.86
2022-08-20T07:06:55.673Z,70.84
2022-08-20T07:08:03.490Z,70.72
2022-08-20T07:09:10.929Z,71.17
2022-08-20T07:10:19.499Z,71.41
2022-08-20T07:11:28.471Z,71.47
2022-08-20T07:12:38.139Z,71.53
2022-08-20T07:13:47.172Z,71.66
2022-08-20T07:14:55.653Z,71.72
2022-08-20T07:16:03.676Z,71.73
2022-08-20T07:17:14.581Z,71.47
2022-08-20T07:18:28.794Z,71.56
2022-08-20T07:19:38.819Z,71.58
2022-08-20T07:20:48.300Z,71.85
2022-08-20T07:21:56.711Z,72.27
2022-08-20T07:23:04.758Z,72.62
2022-08-20T07:24:14.669Z,72.57
2022-08-20T07:25:23.191Z,72.54
2022-08-20T07:26:30.991Z,72.41
2022-08-20T07:27:38.929Z,72.53
2022-08-20T07:28:47.022Z,72.24
2022-08-20T07:30:15.191Z,72.34
2022-08-20T07:31:42.331Z,72.60
2022-08-20T07:32:50.881Z,72.85
2022-08-20T07:33:59.803Z,72.90
2022-08-20T07:35:09.183Z,72.86
2022-08-20T07:36:17.579Z,72.86
2022-08-20T07:37:25.220Z,72.55
2022-08-20T07:38:34.213Z,72.47
2022-08-20T07:39:42.409Z,72.41
2022-08-20T07:40:51.208Z,72.90
2022-08-20T07:42:09.262Z,72.63
2022-08-20T07:43:17.904Z,72.62
2022-08-20T07:44:30.985Z,72.70
2022-08-20T07:45:40.305Z,72.89
2022-08-20T07:46:57.431Z,73.21
2022-08-20T07:48:13.420Z,73.03
2022-08-20T07:49:40.650Z,73.48
2022-08-20T07:50:51.829Z,73.76
2022-08-20T07:52:03.384Z,73.70
2022-08-20T07:53:11.148Z,73.70
2022-08-20T07:54:18.789Z,73.92
2022-08-20T07:55:27.240Z,73.65
2022-08-20T07:56:35.177Z,73.53
2022-08-20T07:57:45.220Z,73.77
2022-08-20T07:58:56.871Z,73.56
2022-08-20T08:00:06.318Z,73.39
2022-08-20T08:01:15.708Z,73.70
2022-08-20T08:02:22.924Z,73.98
2022-08-20T08:03:39.463Z,73.88
2022-08-20T08:04:57.242Z,74.83
2022-08-20T08:06:04.703Z,75.08
2022-08-20T08:07:11.889Z,74.89
2022-08-20T08:08:25.408Z,74.46
2022-08-20T08:09:32.902Z,74.55
2022-08-20T08:10:41.030Z,74.52
2022-08-20T08:11:52.040Z,75.03
2022-08-20T08:13:02.525Z,75.06
2022-08-20T08:14:11.000Z,75.24
2022-08-20T08:15:32.629Z,75.28
2022-08-20T08:16:41.502Z,75.33
2022-08-20T08:17:50.840Z,75.41
2022-08-20T08:19:00.474Z,75.04
2022-08-20T08:20:10.029Z,75.07
2022-08-20T08:21:19.448Z,74.84
2022-08-20T08:22:27.595Z,74.90
2022-08-20T08:23:36.378Z,75.19
2022-08-20T08:24:57.326Z,75.37
2022-08-20T08:26:07.701Z,75.49
2022-08-20T08:27:24.193Z,75.45
2022-08-20T08:28:32.471Z,75.49
2022-08-20T08:29:39.967Z,75.62
2022-08-20T08:30:48.869Z,75.49
2022-08-20T08:31:57.131Z,75.22
2022-08-20T08:33:25.699Z,75.26
2022-08-20T08:34:38.186Z,75.98
2022-08-20T08:35:48.197Z,75.96
2022-08-20T08:36:57.363Z,76.00
2022-08-20T08:38:05.805Z,76.07
2022-08-20T08:39:14.137Z,76.16
2022-08-20T08:40:22.840Z,76.61
2022-08-20T08:41:49.102Z,76.65
2022-08-20T08:42:59.524Z,76.43
2022-08-20T08:44:14.049Z,75.98
2022-08-20T08:45:21.071Z,75.85
2022-08-20T08:46:28.741Z,75.98
2022-08-20T08:47:38.964Z,76.46
2022-08-20T08:48:49.919Z,76.79
2022-08-20T08:49:58.506Z,76.96
2022-08-20T08:51:14.192Z,76.85
2022-08-20T08:52:31.438Z,76.77
2022-08-20T08:53:44.397Z,77.00
2022-08-20T08:54:57.200Z,76.72
2022-08-20T08:56:06.643Z,76.53
2022-08-20T08:57:14.502Z,76.24
2022-08-20T08:58:22.748Z,76.21
2022-08-20T08:59:46.190Z,76.32
2022-08-20T09:01:02.149Z,76.92
2022-08-20T09:02:20.522Z,77.49
2022-08-20T09:03:33.888Z,77.67
2022-08-20T09:04:42.508Z,77.76
2022-08-20T09:06:00.227Z,77.77
2022-08-20T09:07:09.475Z,77.80
2022-08-20T09:08:18.897Z,77.92
2022-08-20T09:09:40.310Z,77.86
2022-08-20T09:10:48.639Z,77.50
2022-08-20T09:11:59.187Z,77.48
2022-08-20T09:13:07.637Z,77.73
2022-08-20T09:14:15.372Z,77.65
2022-08-20T09:15:23.860Z,78.01
2022-08-20T09:16:45.722Z,78.51
2022-08-20T09:18:00.655Z,77.94
2022-08-20T09:19:08.632Z,78.20
2022-08-20T09:20:15.932Z,78.30
2022-08-20T09:21:24.437Z,78.29
2022-08-20T09:22:32.976Z,78.39
2022-08-20T09:23:40.309Z,78.90
2022-08-20T09:24:48.327Z,79.23
2022-08-20T09:25:57.208Z,79.19
2022-08-20T09:27:05.440Z,79.11
2022-08-20T09:28:13.133Z,79.03
2022-08-20T09:29:21.779Z,78.87
2022-08-20T09:30:30.096Z,78.69
2022-08-20T09:31:38.339Z,78.37
2022-08-20T09:32:47.269Z,78.34
2022-08-20T09:33:55.526Z,78.66
2022-08-20T09:35:06.640Z,78.57
2022-08-20T09:36:31.505Z,78.86
2022-08-20T09:37:40.814Z,78.97
2022-08-20T09:38:48.649Z,78.98
2022-08-20T09:39:57.810Z,79.16
2022-08-20T09:41:05.528Z,79.16
2022-08-20T09:42:19.179Z,79.17
2022-08-20T09:43:27.525Z,78.86
2022-08-20T09:44:35.698Z,78.79
2022-08-20T09:45:44.061Z,78.78
2022-08-20T09:46:52.155Z,78.83
2022-08-20T09:48:00.788Z,78.87
2022-08-20T09:49:10.594Z,78.75
2022-08-20T09:50:18.424Z,78.59
2022-08-20T09:51:26.741Z,78.76
2022-08-20T09:52:40.542Z,78.73
2022-08-20T09:53:48.811Z,78.98
2022-08-20T09:55:02.441Z,79.32
2022-08-20T09:56:10.445Z,79.57
2022-08-20T09:57:18.131Z,79.77
2022-08-20T09:58:50.888Z,80.02
2022-08-20T10:00:06.258Z,79.89
2022-08-20T10:01:20.469Z,79.70
2022-08-20T10:02:28.182Z,79.77
2022-08-20T10:03:35.329Z,80.30
2022-08-20T10:04:50.436Z,80.20
2022-08-20T10:05:59.825Z,79.65
2022-08-20T10:07:10.457Z,79.66
2022-08-20T10:08:19.686Z,80.00
2022-08-20T10:09:28.256Z,79.98
2022-08-20T10:10:35.950Z,79.86
2022-08-20T10:11:43.758Z,79.76
2022-08-20T10:12:54.725Z,79.70
2022-08-20T10:14:03.588Z,79.79
2022-08-20T10:15:12.361Z,79.81
2022-08-20T10:16:20.012Z,79.76
2022-08-20T10:17:27.886Z,79.47
2022-08-20T10:18:36.596Z,79.78
2022-08-20T10:19:44.251Z,80.06
2022-08-20T10:20:52.033Z,80.02
2022-08-20T10:22:00.208Z,80.00
2022-08-20T10:23:08.313Z,80.01
2022-08-20T10:24:16.135Z,80.32
2022-08-20T10:25:24.617Z,80.32
2022-08-20T10:26:32.516Z,80.29
2022-08-20T10:27:40.558Z,80.57
2022-08-20T10:28:50.106Z,80.67
2022-08-20T10:29:58.748Z,80.84
2022-08-20T10:31:12.598Z,80.96
2022-08-20T10:32:21.050Z,81.01
2022-08-20T10:33:29.277Z,80.99
2022-08-20T10:34:36.915Z,81.09
2022-08-20T10:35:45.477Z,81.15
2022-08-20T10:36:53.309Z,81.20
2022-08-20T10:38:02.576Z,81.38
2022-08-20T10:39:09.615Z,81.33
2022-08-20T10:40:17.741Z,81.39
2022-08-20T10:41:26.377Z,81.38
2022-08-20T10:42:34.160Z,81.48
2022-08-20T10:43:43.074Z,81.44
2022-08-20T10:44:51.716Z,81.37
2022-08-20T10:46:00.190Z,81.14
2022-08-20T10:47:29.923Z,81.06
2022-08-20T10:48:38.273Z,80.71
2022-08-20T10:49:45.626Z,80.58
2022-08-20T10:50:54.278Z,80.77
2022-08-20T10:52:02.414Z,81.07
2022-08-20T10:53:14.329Z,81.09
2022-08-20T10:54:22.625Z,81.78
2022-08-20T10:55:30.485Z,82.60
2022-08-20T10:56:37.645Z,82.61
2022-08-20T10:57:44.758Z,82.96
2022-08-20T10:58:52.594Z,83.13
2022-08-20T11:00:01.810Z,83.21
2022-08-20T11:01:11.275Z,83.28
2022-08-20T11:02:18.980Z,83.48
2022-08-20T11:03:27.491Z,83.44
2022-08-20T11:04:35.527Z,83.32
2022-08-20T11:05:43.177Z,83.22
2022-08-20T11:06:51.198Z,83.10
2022-08-20T11:07:59.362Z,82.84
2022-08-20T11:09:09.693Z,83.17
2022-08-20T11:10:17.838Z,83.70
2022-08-20T11:11:26.107Z,83.94
2022-08-20T11:12:34.275Z,83.94
2022-08-20T11:13:41.554Z,83.77
2022-08-20T11:14:48.860Z,83.61
2022-08-20T11:15:57.767Z,83.62
2022-08-20T11:17:05.627Z,84.65
2022-08-20T11:18:14.697Z,84.68
2022-08-20T11:19:22.688Z,84.96
2022-08-20T11:20:33.244Z,84.99
2022-08-20T11:21:40.859Z,84.58
2022-08-20T11:22:48.664Z,84.65
2022-08-20T11:23:59.904Z,84.73
2022-08-20T11:25:11.192Z,84.82
2022-08-20T11:26:24.601Z,84.74
2022-08-20T11:27:35.722Z,85.03
2022-08-20T11:28:43.438Z,85.22
2022-08-20T11:29:51.367Z,85.22
2022-08-20T11:31:00.195Z,84.95
2022-08-20T11:32:08.581Z,84.90
2022-08-20T11:33:16.489Z,84.80
2022-08-20T11:34:26.525Z,84.76
2022-08-20T11:35:43.528Z,84.82
2022-08-20T11:36:58.857Z,84.77
2022-08-20T11:38:06.684Z,84.75
2022-08-20T11:39:14.238Z,84.78
2022-08-20T11:40:23.022Z,84.48
2022-08-20T11:41:30.609Z,84.34
2022-08-20T11:42:53.255Z,84.18
2022-08-20T11:44:20.862Z,84.21
2022-08-20T11:45:30.176Z,84.45
2022-08-20T11:46:45.434Z,84.43
2022-08-20T11:47:53.929Z,84.59
2022-08-20T11:49:02.721Z,84.47
2022-08-20T11:50:19.833Z,84.41
2022-08-20T11:51:28.278Z,84.52
2022-08-20T11:52:35.820Z,84.55
2022-08-20T11:53:43.618Z,84.40
2022-08-20T11:54:54.727Z,84.34
2022-08-20T11:56:04.211Z,84.49
2022-08-20T11:57:11.667Z,84.55
2022-08-20T11:58:20.057Z,84.71
2022-08-20T11:59:28.191Z,84.85
2022-08-20T12:00:36.289Z,84.75
2022-08-20T12:01:46.652Z,84.78
2022-08-20T12:03:11.756Z,84.91
2022-08-20T12:04:19.876Z,84.98
2022-08-20T12:05:30.836Z,84.82
2022-08-20T12:06:38.408Z,84.80
2022-08-20T12:07:47.928Z,84.70
2022-08-20T12:08:56.298Z,84.65
2022-08-20T12:10:05.704Z,84.61
2022-08-20T12:11:12.933Z,84.51
2022-08-20T12:12:22.216Z,84.07
2022-08-20T12:13:47.182Z,83.95
2022-08-20T12:14:57.774Z,83.88
2022-08-20T12:16:06.345Z,83.93
2022-08-20T12:17:15.440Z,83.85
2022-08-20T12:18:23.363Z,83.94
2022-08-20T12:19:36.538Z,84.07
2022-08-20T12:20:45.164Z,83.94
2022-08-20T12:21:53.281Z,84.11
2022-08-20T12:23:01.483Z,83.93
2022-08-20T12:24:10.306Z,84.07
2022-08-20T12:25:18.269Z,83.93
2022-08-20T12:26:25.967Z,83.91
2022-08-20T12:27:34.241Z,83.74
2022-08-20T12:28:42.566Z,83.67
2022-08-20T12:29:53.962Z,83.72
2022-08-20T12:31:02.964Z,83.75
2022-08-20T12:32:10.873Z,83.54
2022-08-20T12:33:19.147Z,83.59
2022-08-20T12:34:27.238Z,83.86
2022-08-20T12:35:35.561Z,84.10
2022-08-20T12:36:44.744Z,84.32
2022-08-20T12:37:54.512Z,84.65
2022-08-20T12:39:03.368Z,84.47
2022-08-20T12:40:15.430Z,84.37
2022-08-20T12:41:23.084Z,84.10
2022-08-20T12:42:32.647Z,84.16
2022-08-20T12:43:40.535Z,84.21
2022-08-20T12:44:48.669Z,84.24
2022-08-20T12:45:57.305Z,84.25
2022-08-20T12:47:12.809Z,84.33
2022-08-20T12:48:22.696Z,84.30
2022-08-20T12:49:30.152Z,84.31
2022-08-20T12:50:38.064Z,84.34
2022-08-20T12:51:45.647Z,84.21
2022-08-20T12:52:54.743Z,84.04
2022-08-20T12:54:02.661Z,83.65
2022-08-20T12:55:11.293Z,83.44
2022-08-20T12:56:18.858Z,83.29
2022-08-20T12:57:30.208Z,83.61
2022-08-20T12:58:38.384Z,83.95
2022-08-20T12:59:46.215Z,84.46
2022-08-20T13:00:54.775Z,84.96
2022-08-20T13:02:14.001Z,84.90
2022-08-20T13:03:27.015Z,85.09
2022-08-20T13:04:39.834Z,85.33
2022-08-20T13:05:47.655Z,85.56
2022-08-20T13:06:56.021Z,85.71
2022-08-20T13:08:03.668Z,85.65
2022-08-20T13:09:11.534Z,85.55
2022-08-20T13:10:24.321Z,85.65
2022-08-20T13:11:31.866Z,85.37
2022-08-20T13:12:39.276Z,85.22
2022-08-20T13:13:49.201Z,85.11
2022-08-20T13:14:57.674Z,84.95
2022-08-20T13:16:05.756Z,84.47
2022-08-20T13:17:13.167Z,84.21
2022-08-20T13:18:20.835Z,84.21
2022-08-20T13:19:29.126Z,84.20
2022-08-20T13:20:37.804Z,84.22
2022-08-20T13:21:45.246Z,84.47
2022-08-20T13:23:04.054Z,84.65
2022-08-20T13:24:12.490Z,84.72
2022-08-20T13:25:25.694Z,84.66
2022-08-20T13:26:34.908Z,84.48
2022-08-20T13:27:43.933Z,84.38
2022-08-20T13:28:52.098Z,84.38
2022-08-20T13:30:00.923Z,84.66
2022-08-20T13:31:08.989Z,84.48
2022-08-20T13:32:17.290Z,84.26
2022-08-20T13:33:25.958Z,84.05
2022-08-20T13:34:34.590Z,83.93
2022-08-20T13:35:42.487Z,83.76
2022-08-20T13:36:50.277Z,83.57
2022-08-20T13:37:58.728Z,83.38
2022-08-20T13:39:08.473Z,83.34
2022-08-20T13:40:16.396Z,83.29
2022-08-20T13:41:24.697Z,83.11
2022-08-20T13:42:33.288Z,83.16
2022-08-20T13:43:41.057Z,83.13
2022-08-20T13:44:48.605Z,82.95
2022-08-20T13:45:57.062Z,82.52
2022-08-20T13:47:26.675Z,81.92
2022-08-20T13:48:35.666Z,81.07
2022-08-20T13:49:43.223Z,80.18
2022-08-20T13:50:51.251Z,79.61
2022-08-20T13:51:59.213Z,79.11
2022-08-20T13:53:10.558Z,78.51
2022-08-20T13:54:18.718Z,78.10
2022-08-20T13:55:27.856Z,77.39
2022-08-20T13:56:40.228Z,76.74
2022-08-20T13:57:48.438Z,76.36
2022-08-20T13:58:57.036Z,75.87
2022-08-20T14:00:05.402Z,75.09
2022-08-20T14:01:12.350Z,74.52
2022-08-20T14:02:20.813Z,74.32
2022-08-20T14:03:29.357Z,74.35
2022-08-20T14:04:38.156Z,74.62
2022-08-20T14:05:45.899Z,74.73
2022-08-20T14:06:54.102Z,74.88
2022-08-20T14:08:09.622Z,74.97
2022-08-20T14:09:17.207Z,74.34
2022-08-20T14:10:28.169Z,73.56
2022-08-20T14:11:36.813Z,72.59
2022-08-20T14:12:45.143Z,71.78
2022-08-20T14:13:54.573Z,70.82
2022-08-20T14:15:02.747Z,69.94
2022-08-20T14:16:21.194Z,69.66
2022-08-20T14:17:35.274Z,69.00
2022-08-20T14:18:43.204Z,68.06
2022-08-20T14:20:01.412Z,66.70
2022-08-20T14:21:10.154Z,65.99
2022-08-20T14:22:21.488Z,64.99
2022-08-20T14:23:29.678Z,64.65
2022-08-20T14:24:37.691Z,64.04
2022-08-20T14:25:49.166Z,64.05
2022-08-20T14:26:57.619Z,63.76
2022-08-20T14:28:39.706Z,63.21
2022-08-20T14:29:51.715Z,63.05
2022-08-20T14:31:00.437Z,62.52
2022-08-20T14:32:08.927Z,62.54
2022-08-20T14:33:16.691Z,62.23
2022-08-20T14:34:24.690Z,61.84
2022-08-20T14:35:32.355Z,61.74
2022-08-20T14:36:45.153Z,61.69
2022-08-20T14:37:58.368Z,61.30
2022-08-20T14:39:06.610Z,60.96
2022-08-20T14:40:16.788Z,60.55
2022-08-20T14:41:26.292Z,60.03
2022-08-20T14:42:37.171Z,59.78
2022-08-20T14:43:45.052Z,58.64
2022-08-20T14:44:53.480Z,57.96
2022-08-20T14:46:01.641Z,57.31
2022-08-20T14:47:16.561Z,56.61
2022-08-20T14:48:27.553Z,56.05
2022-08-20T14:49:43.894Z,55.77
2022-08-20T14:50:51.887Z,55.70
2022-08-20T14:52:00.347Z,54.89
2022-08-20T14:53:07.893Z,54.51
2022-08-20T14:54:16.040Z,54.26
2022-08-20T14:55:24.927Z,54.24
2022-08-20T14:56:34.262Z,52.69
2022-08-20T14:57:41.950Z,52.98
2022-08-20T14:58:52.453Z,52.86
2022-08-20T15:00:00.568Z,52.26
2022-08-20T15:01:09.206Z,52.38
2022-08-20T15:02:17.644Z,52.38
2022-08-20T15:03:30.153Z,52.45
2022-08-20T15:04:38.772Z,53.00
2022-08-20T15:05:50.215Z,53.27
2022-08-20T15:07:08.093Z,53.04